createdAt,value
2022-10-19T00:01:25.803Z,61.50
2022-10-19T00:04:33.557Z,17.75
2022-10-19T00:07:41.734Z,64.00
2022-10-19T00:10:45.887Z,69.25
2022-10-19T00:13:50.030Z,68.25
2022-10-19T00:16:55.830Z,68.50
2022-10-19T00:20:01.224Z,64.50
2022-10-19T00:23:05.196Z,70.00
2022-10-19T00:26:09.480Z,62.25
2022-10-19T00:29:14.893Z,65.00
2022-10-19T00:32:19.026Z,67.75
2022-10-19T00:35:28.493Z,62.00
2022-10-19T00:38:33.203Z,61.00
2022-10-19T00:41:38.172Z,66.50
2022-10-19T00:45:05.378Z,68.00
2022-10-19T00:48:11.341Z,66.00
2022-10-19T00:51:16.796Z,60.00
2022-10-19T00:54:21.084Z,51.00
2022-10-19T00:57:28.853Z,70.25
2022-10-19T01:00:34.721Z,56.75
2022-10-19T01:03:40.524Z,62.50
2022-10-19T01:06:47.477Z,65.75
2022-10-19T01:09:51.583Z,65.50
2022-10-19T01:13:15.996Z,64.00
2022-10-19T01:16:32.792Z,62.00
2022-10-19T01:20:10.939Z,68.75
2022-10-19T01:23:47.886Z,63.50
2022-10-19T01:27:15.490Z,64.25
2022-10-19T01:30:33.490Z,68.25
2022-10-19T01:33:47.105Z,60.50
2022-10-19T01:37:01.964Z,53.75
2022-10-19T01:40:12.000Z,69.25
2022-10-19T01:43:26.246Z,67.25
2022-10-19T01:46:37.727Z,64.00
2022-10-19T01:49:48.548Z,65.75
2022-10-19T01:52:56.948Z,71.00
2022-10-19T01:56:03.677Z,60.75
2022-10-19T01:59:11.248Z,67.50
2022-10-19T02:02:18.919Z,69.25
2022-10-19T02:05:28.970Z,62.75
2022-10-19T02:08:40.368Z,63.50
2022-10-19T02:11:49.049Z,69.25
2022-10-19T02:15:00.608Z,59.75
2022-10-19T02:18:07.505Z,62.00
2022-10-19T02:21:12.091Z,58.50
2022-10-19T02:24:16.623Z,66.75
2022-10-19T02:27:21.026Z,55.00
2022-10-19T02:30:24.628Z,66.75
2022-10-19T02:33:30.730Z,62.50
2022-10-19T02:36:34.294Z,4.75
2022-10-19T02:39:39.426Z,63.25
2022-10-19T02:42:47.422Z,60.25
2022-10-19T02:45:57.636Z,63.50
2022-10-19T02:49:04.987Z,60.75
2022-10-19T02:52:10.749Z,50.75
2022-10-19T02:55:14.251Z,60.50
2022-10-19T02:58:18.038Z,72.50
2022-10-19T03:01:22.539Z,58.50
2022-10-19T03:04:32.846Z,46.75
2022-10-19T03:07:37.667Z,56.50
2022-10-19T03:10:41.642Z,52.50
2022-10-19T03:13:45.415Z,68.75
2022-10-19T03:16:49.833Z,68.00
2022-10-19T03:19:54.771Z,59.50
2022-10-19T03:22:58.513Z,51.50
2022-10-19T03:26:02.224Z,58.00
2022-10-19T03:29:06.108Z,57.50
2022-10-19T03:32:10.658Z,62.00
2022-10-19T03:35:18.360Z,58.50
2022-10-19T03:38:21.909Z,54.75
2022-10-19T03:41:28.363Z,69.00
2022-10-19T03:44:33.740Z,54.00
2022-10-19T03:47:38.288Z,54.50
2022-10-19T03:50:43.593Z,52.75
2022-10-19T03:53:48.453Z,58.25
2022-10-19T03:56:53.882Z,84.67
2022-10-19T04:00:00.535Z,82.25
2022-10-19T04:03:04.165Z,75.25
2022-10-19T04:06:14.006Z,75.00
2022-10-19T04:09:21.922Z,70.75
2022-10-19T04:12:26.161Z,71.75
2022-10-19T04:15:31.523Z,59.75
2022-10-19T04:18:36.696Z,66.50
2022-10-19T04:21:43.667Z,58.25
2022-10-19T04:24:47.869Z,69.75
2022-10-19T04:27:51.491Z,68.50
2022-10-19T04:30:55.497Z,65.75
2022-10-19T04:33:59.308Z,67.50
2022-10-19T04:37:04.778Z,57.50
2022-10-19T04:40:14.230Z,57.25
2022-10-19T04:43:19.620Z,58.50
2022-10-19T04:46:23.843Z,62.00
2022-10-19T04:49:28.899Z,57.25
2022-10-19T04:52:35.603Z,53.75
2022-10-19T04:55:42.349Z,52.50
2022-10-19T04:58:46.881Z,54.50
2022-10-19T05:01:51.023Z,67.75
2022-10-19T05:04:54.466Z,68.25
2022-10-19T05:08:00.329Z,90.50
2022-10-19T05:11:05.262Z,92.50
2022-10-19T05:14:09.215Z,87.25
2022-10-19T05:17:14.284Z,72.50
2022-10-19T05:20:18.418Z,90.00
2022-10-19T05:23:24.564Z,90.00
2022-10-19T05:26:30.361Z,102.67
2022-10-19T05:29:35.122Z,66.33
2022-10-19T05:32:39.599Z,89.75
2022-10-19T05:35:44.153Z,74.75
2022-10-19T05:38:52.906Z,85.75
2022-10-19T05:41:56.653Z,80.25
2022-10-19T05:45:02.269Z,82.00
2022-10-19T05:48:06.924Z,80.00
2022-10-19T05:51:15.755Z,93.25
2022-10-19T05:54:23.752Z,102.33
2022-10-19T05:57:35.864Z,112.00
2022-10-19T06:00:39.828Z,95.00
2022-10-19T06:03:46.338Z,96.25
2022-10-19T06:06:50.301Z,80.25
2022-10-19T06:09:57.092Z,86.00
2022-10-19T06:13:01.055Z,79.00
2022-10-19T06:16:05.898Z,78.25
2022-10-19T06:19:10.451Z,85.50
2022-10-19T06:22:14.543Z,78.00
2022-10-19T06:25:20.796Z,98.50
2022-10-19T06:28:24.626Z,89.50
2022-10-19T06:31:29.326Z,71.75
2022-10-19T06:34:33.179Z,86.50
2022-10-19T06:37:37.025Z,90.50
2022-10-19T06:40:45.756Z,91.25
2022-10-19T06:43:53.951Z,91.00
2022-10-19T06:46:57.981Z,82.25
2022-10-19T06:50:01.611Z,80.75
2022-10-19T06:53:07.828Z,77.75
2022-10-19T06:56:13.200Z,81.50
2022-10-19T06:59:17.983Z,77.00
2022-10-19T07:02:25.713Z,76.50
2022-10-19T07:05:29.560Z,70.50
2022-10-19T07:08:34.971Z,79.25
2022-10-19T07:11:45.756Z,92.75
2022-10-19T07:14:51.346Z,88.25
2022-10-19T07:18:20.547Z,81.50
2022-10-19T07:21:25.328Z,84.25
2022-10-19T07:24:29.619Z,81.25
2022-10-19T07:27:40.224Z,82.50
2022-10-19T07:30:44.713Z,33.75
2022-10-19T07:33:48.883Z,73.75
2022-10-19T07:36:52.956Z,76.00
2022-10-19T07:39:59.298Z,79.00
2022-10-19T07:43:04.963Z,79.00
2022-10-19T07:46:13.292Z,77.00
2022-10-19T07:49:19.175Z,71.50
2022-10-19T07:52:23.356Z,82.00
2022-10-19T07:55:28.187Z,73.50
2022-10-19T07:58:34.488Z,69.00
2022-10-19T08:01:42.318Z,64.50
2022-10-19T08:05:00.378Z,79.00
2022-10-19T08:08:06.737Z,76.75
2022-10-19T08:11:11.959Z,81.25
2022-10-19T08:14:17.650Z,78.00
2022-10-19T08:17:22.023Z,64.25
2022-10-19T08:20:25.846Z,73.25
2022-10-19T08:23:32.329Z,71.25
2022-10-19T08:26:39.004Z,69.00
2022-10-19T08:29:44.373Z,78.50
2022-10-19T08:32:48.533Z,79.75
2022-10-19T08:35:54.074Z,76.00
2022-10-19T08:38:59.071Z,77.75
2022-10-19T08:42:05.301Z,73.75
2022-10-19T08:45:33.371Z,76.75
2022-10-19T08:48:43.083Z,65.00
2022-10-19T08:51:52.609Z,75.75
2022-10-19T08:54:59.332Z,65.25
2022-10-19T08:58:18.488Z,66.75
2022-10-19T09:01:37.731Z,63.25
2022-10-19T09:04:44.398Z,46.50
2022-10-19T09:07:56.349Z,43.25
2022-10-19T09:11:03.313Z,50.50
2022-10-19T09:14:15.752Z,31.00
2022-10-19T09:17:25.631Z,47.75
2022-10-19T09:20:35.822Z,44.50
2022-10-19T09:23:41.903Z,40.75
2022-10-19T09:26:53.585Z,36.75
2022-10-19T09:29:59.728Z,32.75
2022-10-19T09:33:15.425Z,48.00
2022-10-19T09:36:23.035Z,36.25
2022-10-19T09:39:32.564Z,47.00
2022-10-19T09:42:37.567Z,43.50
2022-10-19T09:45:51.713Z,37.75
2022-10-19T09:49:01.330Z,40.25
2022-10-19T09:52:05.517Z,36.50
2022-10-19T09:55:24.478Z,47.75
2022-10-19T09:58:33.043Z,35.25
2022-10-19T10:01:43.017Z,57.75
2022-10-19T10:04:57.838Z,39.50
2022-10-19T10:08:31.446Z,42.25
2022-10-19T10:14:57.220Z,37.25
2022-10-19T10:18:00.836Z,37.75
2022-10-19T10:21:14.864Z,37.00
2022-10-19T10:24:21.458Z,37.50
2022-10-19T10:27:34.886Z,43.25
2022-10-19T10:30:39.289Z,52.00
2022-10-19T10:33:45.566Z,40.00
2022-10-19T10:36:55.370Z,75.75
2022-10-19T10:40:03.696Z,33.00
2022-10-19T10:43:14.718Z,51.50
2022-10-19T10:46:23.966Z,45.75
2022-10-19T10:49:30.272Z,47.25
2022-10-19T10:52:37.337Z,52.75
2022-10-19T10:55:56.127Z,51.00
2022-10-19T10:59:06.277Z,47.25
2022-10-19T11:02:19.967Z,53.00
2022-10-19T11:05:27.198Z,38.00
2022-10-19T11:08:36.671Z,46.00
2022-10-19T11:11:45.969Z,46.00
2022-10-19T11:14:53.291Z,47.00
2022-10-19T11:18:09.579Z,50.50
2022-10-19T11:21:21.343Z,49.25
2022-10-19T11:24:45.082Z,22.50
2022-10-19T11:28:00.712Z,44.00
2022-10-19T11:31:16.655Z,48.00
2022-10-19T11:34:39.527Z,33.75
2022-10-19T11:38:17.938Z,35.25
2022-10-19T11:41:30.881Z,38.50
2022-10-19T11:44:48.115Z,40.00
2022-10-19T11:48:07.501Z,35.50
2022-10-19T11:51:21.798Z,38.75
2022-10-19T11:54:54.137Z,37.00
2022-10-19T11:58:09.736Z,41.75
2022-10-19T12:01:30.740Z,35.00
2022-10-19T12:04:48.648Z,33.25
2022-10-19T12:08:07.655Z,33.50
2022-10-19T12:11:28.696Z,40.75
2022-10-19T12:14:37.568Z,45.75
2022-10-19T12:17:48.464Z,42.50
2022-10-19T12:20:57.162Z,48.00
2022-10-19T12:24:05.378Z,43.25
2022-10-19T12:27:14.738Z,44.50
2022-10-19T12:30:24.977Z,45.25
2022-10-19T12:33:37.135Z,47.00
2022-10-19T12:36:51.498Z,44.50
2022-10-19T12:40:01.176Z,52.25
2022-10-19T12:43:10.906Z,48.00
2022-10-19T12:46:29.980Z,47.75
2022-10-19T12:49:49.557Z,45.00
2022-10-19T12:52:54.975Z,52.25
2022-10-19T12:56:04.968Z,49.25
2022-10-19T12:59:25.630Z,49.00
2022-10-19T13:02:34.420Z,45.50
2022-10-19T13:05:38.304Z,49.00
2022-10-19T13:08:47.998Z,49.25
2022-10-19T13:12:25.844Z,45.00
2022-10-19T13:15:54.072Z,42.00
2022-10-19T13:19:19.172Z,50.25
2022-10-19T13:22:32.547Z,49.00
2022-10-19T13:25:36.935Z,50.25
2022-10-19T13:28:54.250Z,45.00
2022-10-19T13:32:32.602Z,46.00
2022-10-19T13:35:38.779Z,64.00
2022-10-19T13:38:44.669Z,57.00
2022-10-19T13:41:54.079Z,59.00
2022-10-19T13:44:59.712Z,56.00
2022-10-19T13:48:18.350Z,51.75
2022-10-19T13:51:33.817Z,44.25
2022-10-19T13:55:04.154Z,35.75
2022-10-19T13:58:38.649Z,48.75
2022-10-19T14:01:58.560Z,53.25
2022-10-19T14:05:26.504Z,43.00
2022-10-19T14:08:56.112Z,42.50
2022-10-19T14:12:07.880Z,41.50
2022-10-19T14:15:23.496Z,44.50
2022-10-19T14:18:29.578Z,40.00
2022-10-19T14:21:52.313Z,39.50
2022-10-19T14:25:05.480Z,44.50
2022-10-19T14:28:10.452Z,45.50
2022-10-19T14:31:21.841Z,43.50
2022-10-19T14:34:50.300Z,47.25
2022-10-19T14:37:56.904Z,64.00
2022-10-19T14:41:02.808Z,78.00
2022-10-19T14:44:34.327Z,86.25
2022-10-19T14:47:38.411Z,65.25
2022-10-19T14:50:47.868Z,50.25
2022-10-19T14:57:51.003Z,53.50
2022-10-19T15:00:56.728Z,45.25
2022-10-19T15:04:00.877Z,43.25
2022-10-19T15:07:15.789Z,50.75
2022-10-19T15:10:22.080Z,68.00
2022-10-19T15:13:33.740Z,49.75
2022-10-19T15:16:49.015Z,53.00
2022-10-19T15:19:53.870Z,64.75
2022-10-19T15:22:58.740Z,56.50
2022-10-19T15:26:09.554Z,65.75
2022-10-19T15:29:24.337Z,58.50
2022-10-19T15:32:35.454Z,63.75
2022-10-19T15:35:41.452Z,60.50
2022-10-19T15:38:47.300Z,67.50
2022-10-19T15:41:51.032Z,78.75
2022-10-19T15:44:56.386Z,68.75
2022-10-19T15:48:26.456Z,52.75
2022-10-19T15:51:47.394Z,60.25
2022-10-19T15:54:51.662Z,60.00
2022-10-19T15:58:00.422Z,55.75
2022-10-19T16:01:05.478Z,62.25
2022-10-19T16:04:09.508Z,70.25
2022-10-19T16:07:20.106Z,64.50
2022-10-19T16:10:29.504Z,69.00
2022-10-19T16:13:33.032Z,62.00
2022-10-19T16:16:38.642Z,85.75
2022-10-19T16:19:42.275Z,75.00
2022-10-19T16:22:47.847Z,69.00
2022-10-19T16:25:53.389Z,80.25
2022-10-19T16:28:57.843Z,72.25
2022-10-19T16:32:04.923Z,82.50
2022-10-19T16:35:10.315Z,75.25
2022-10-19T16:38:14.059Z,82.25
2022-10-19T16:41:22.231Z,146.33
2022-10-19T16:44:25.652Z,97.00
2022-10-19T16:47:30.814Z,108.00
2022-10-19T16:50:34.841Z,88.25
2022-10-19T16:53:39.829Z,86.25
2022-10-19T16:56:46.820Z,85.25
2022-10-19T16:59:54.471Z,84.75
2022-10-19T17:02:59.377Z,97.25
2022-10-19T17:06:03.771Z,94.25
2022-10-19T17:09:40.395Z,80.75
2022-10-19T17:12:34.359Z,73.25
2022-10-19T17:15:43.006Z,68.00
2022-10-19T17:19:15.469Z,69.00
2022-10-19T17:28:11.070Z,62.00
2022-10-19T17:31:15.435Z,61.50
2022-10-19T17:34:20.483Z,64.75
2022-10-19T17:37:24.238Z,70.25
2022-10-19T17:40:27.727Z,87.50
2022-10-19T17:43:31.479Z,86.25
2022-10-19T17:46:38.531Z,79.50
2022-10-19T17:49:43.553Z,89.00
2022-10-19T17:52:47.805Z,94.75
2022-10-19T17:55:52.348Z,124.33
2022-10-19T17:58:57.353Z,125.67
2022-10-19T18:02:02.085Z,174.00
2022-10-19T18:05:09.576Z,109.67
2022-10-19T18:08:13.658Z,79.50
2022-10-19T18:11:20.320Z,149.00
2022-10-19T18:14:24.114Z,110.75
2022-10-19T18:17:28.869Z,103.00
2022-10-19T18:20:36.222Z,83.75
2022-10-19T18:23:40.977Z,104.75
2022-10-19T18:26:49.180Z,106.50
2022-10-19T18:29:53.061Z,90.50
2022-10-19T18:32:59.390Z,73.00
2022-10-19T18:36:07.772Z,95.25
2022-10-19T18:39:13.629Z,82.25
2022-10-19T18:42:18.127Z,89.25
2022-10-19T18:45:23.509Z,85.25
2022-10-19T18:48:32.753Z,98.00
2022-10-19T18:51:39.347Z,76.00
2022-10-19T18:58:31.884Z,86.00
2022-10-19T19:01:40.517Z,80.50
2022-10-19T19:04:46.817Z,116.33
2022-10-19T19:07:52.900Z,119.33
2022-10-19T19:10:57.241Z,91.00
2022-10-19T19:14:02.794Z,79.75
2022-10-19T19:17:07.395Z,82.50
2022-10-19T19:20:12.567Z,77.00
2022-10-19T19:23:31.184Z,84.00
2022-10-19T19:26:40.483Z,83.50
2022-10-19T19:29:48.072Z,93.25
2022-10-19T19:32:52.428Z,89.75
2022-10-19T19:35:56.200Z,87.50
2022-10-19T19:39:01.354Z,82.25
2022-10-19T19:42:05.525Z,82.25
2022-10-19T19:45:12.199Z,84.75
2022-10-19T19:48:17.399Z,79.00
2022-10-19T19:51:22.571Z,74.00
2022-10-19T19:54:29.259Z,72.00
2022-10-19T19:57:33.004Z,79.75
2022-10-19T20:00:40.611Z,88.75
2022-10-19T20:03:46.203Z,65.50
2022-10-19T20:06:52.801Z,82.75
2022-10-19T20:10:04.709Z,0.50
2022-10-19T20:13:09.264Z,71.25
2022-10-19T20:16:14.685Z,63.75
2022-10-19T20:19:19.391Z,72.50
2022-10-19T20:22:28.271Z,76.50
2022-10-19T20:25:40.697Z,67.00
2022-10-19T20:28:46.490Z,60.75
2022-10-19T20:31:50.842Z,56.00
2022-10-19T20:34:56.124Z,59.00
2022-10-19T20:38:01.843Z,62.25
2022-10-19T20:41:10.615Z,58.00
2022-10-19T20:44:15.886Z,62.00
2022-10-19T20:47:22.179Z,58.75
2022-10-19T20:50:26.532Z,61.00
2022-10-19T20:53:30.635Z,53.75
2022-10-19T20:56:40.435Z,57.25
2022-10-19T20:59:44.285Z,54.00
2022-10-19T21:02:50.929Z,46.50
2022-10-19T21:05:54.731Z,47.25
2022-10-19T21:08:59.434Z,55.00
2022-10-19T21:12:04.925Z,59.00
2022-10-19T21:15:20.591Z,60.25
2022-10-19T21:18:29.008Z,46.00
2022-10-19T21:21:36.268Z,50.25
2022-10-19T21:24:41.515Z,53.25
2022-10-19T21:27:49.208Z,47.75
2022-10-19T21:30:56.189Z,48.00
2022-10-19T21:34:07.223Z,45.00
2022-10-19T21:37:11.682Z,43.75
2022-10-19T21:40:15.954Z,37.00
2022-10-19T21:43:21.664Z,38.25
2022-10-19T21:46:27.608Z,39.75
2022-10-19T21:49:31.401Z,40.75
2022-10-19T21:52:35.403Z,45.25
2022-10-19T21:55:39.695Z,45.50
2022-10-19T21:58:47.715Z,45.00
2022-10-19T22:01:52.037Z,42.50
2022-10-19T22:04:58.760Z,47.25
2022-10-19T22:08:02.636Z,34.25
2022-10-19T22:11:11.442Z,47.00
2022-10-19T22:14:18.103Z,45.25
2022-10-19T22:17:21.936Z,37.75
2022-10-19T22:20:27.338Z,10.25
2022-10-19T22:23:31.323Z,35.00
2022-10-19T22:30:55.591Z,41.00
2022-10-19T22:34:00.869Z,40.75
2022-10-19T22:37:04.975Z,35.75
2022-10-19T22:40:09.847Z,38.50
2022-10-19T22:43:14.939Z,36.75
2022-10-19T22:46:20.550Z,32.50
2022-10-19T22:49:24.846Z,33.75
2022-10-19T22:52:29.642Z,37.00
2022-10-19T22:55:33.568Z,36.25
2022-10-19T22:58:37.432Z,31.50
2022-10-19T23:01:43.257Z,33.25
2022-10-19T23:04:47.416Z,38.75
2022-10-19T23:07:51.748Z,34.75
2022-10-19T23:10:55.576Z,31.50
2022-10-19T23:13:59.693Z,39.25
2022-10-19T23:17:05.226Z,31.75
2022-10-19T23:20:10.858Z,28.25
2022-10-19T23:23:14.471Z,32.00
2022-10-19T23:26:20.695Z,35.50
2022-10-19T23:29:24.744Z,31.25
2022-10-19T23:32:30.670Z,29.25
2022-10-19T23:35:34.403Z,44.75
2022-10-19T23:38:38.421Z,32.25
2022-10-19T23:41:42.755Z,28.00
2022-10-19T23:44:47.786Z,30.50
2022-10-19T23:47:53.191Z,27.00
2022-10-19T23:50:59.300Z,34.25
2022-10-19T23:54:03.307Z,20.00
2022-10-19T23:57:09.783Z,26.50
